sensor_id;sensor_type;location;lat;lon;timestamp;P1;durP1;ratioP1;P2;durP2;ratioP2
84943;SDS011;75231;53.650;9.788;2024-01-15T00:01:06;12.88;;;1.83;;
84943;SDS011;75231;53.650;9.788;2024-01-15T00:05:57;10.17;;;1.90;;
84943;SDS011;75231;53.650;9.788;2024-01-15T00:08:22;6.17;;;1.50;;
84943;SDS011;75231;53.650;9.788;2024-01-15T00:10:47;5.00;;;1.73;;
84943;SDS011;75231;53.650;9.788;2024-01-15T00:13:13;7.22;;;2.63;;
84943;SDS011;75231;53.650;9.788;2024-01-15T00:15:38;5.03;;;1.35;;
84943;SDS011;75231;53.650;9.788;2024-01-15T00:18:03;9.75;;;1.65;;
84943;SDS011;75231;53.650;9.788;2024-01-15T00:20:29;10.75;;;2.00;;
84943;SDS011;75231;53.650;9.788;2024-01-15T00:22:54;14.40;;;2.60;;
84943;SDS011;75231;53.650;9.788;2024-01-15T00:25:19;11.48;;;2.08;;
84943;SDS011;75231;53.650;9.788;2024-01-15T00:27:45;12.15;;;2.05;;
84943;SDS011;75231;53.650;9.788;2024-01-15T00:30:10;11.48;;;2.00;;
84943;SDS011;75231;53.650;9.788;2024-01-15T00:32:36;6.57;;;1.60;;
84943;SDS011;75231;53.650;9.788;2024-01-15T00:35:01;10.05;;;2.95;;
84943;SDS011;75231;53.650;9.788;2024-01-15T00:37:28;7.90;;;2.50;;
84943;SDS011;75231;53.650;9.788;2024-01-15T00:39:53;9.83;;;1.70;;
84943;SDS011;75231;53.650;9.788;2024-01-15T00:42:18;7.27;;;2.17;;
84943;SDS011;75231;53.650;9.788;2024-01-15T00:44:43;15.27;;;3.43;;
84943;SDS011;75231;53.650;9.788;2024-01-15T00:47:09;5.57;;;1.40;;
84943;SDS011;75231;53.650;9.788;2024-01-15T00:49:34;8.50;;;1.95;;
84943;SDS011;75231;53.650;9.788;2024-01-15T00:51:59;8.63;;;1.88;;
84943;SDS011;75231;53.650;9.788;2024-01-15T00:54:25;5.43;;;1.80;;
84943;SDS011;75231;53.650;9.788;2024-01-15T00:56:51;5.80;;;2.00;;
84943;SDS011;75231;53.650;9.788;2024-01-15T00:59:16;7.73;;;2.27;;
84943;SDS011;75231;53.650;9.788;2024-01-15T01:01:42;7.80;;;2.10;;
84943;SDS011;75231;53.650;9.788;2024-01-15T01:04:11;6.80;;;2.22;;
84943;SDS011;75231;53.650;9.788;2024-01-15T01:06:37;8.68;;;2.20;;
84943;SDS011;75231;53.650;9.788;2024-01-15T01:09:04;7.50;;;1.50;;
84943;SDS011;75231;53.650;9.788;2024-01-15T01:11:30;8.30;;;2.00;;
84943;SDS011;75231;53.650;9.788;2024-01-15T01:13:55;8.38;;;1.38;;
84943;SDS011;75231;53.650;9.788;2024-01-15T01:18:46;9.33;;;2.73;;
84943;SDS011;75231;53.650;9.788;2024-01-15T01:21:12;7.07;;;1.50;;
84943;SDS011;75231;53.650;9.788;2024-01-15T01:23:37;10.10;;;1.97;;
84943;SDS011;75231;53.650;9.788;2024-01-15T01:26:02;10.30;;;1.92;;
84943;SDS011;75231;53.650;9.788;2024-01-15T01:28:28;9.30;;;1.05;;
84943;SDS011;75231;53.650;9.788;2024-01-15T01:30:53;6.53;;;1.70;;
84943;SDS011;75231;53.650;9.788;2024-01-15T01:33:18;10.13;;;1.42;;
84943;SDS011;75231;53.650;9.788;2024-01-15T01:35:43;8.88;;;2.50;;
84943;SDS011;75231;53.650;9.788;2024-01-15T01:38:10;12.77;;;1.48;;
84943;SDS011;75231;53.650;9.788;2024-01-15T01:40:35;7.65;;;1.45;;
84943;SDS011;75231;53.650;9.788;2024-01-15T01:43:01;11.10;;;1.40;;
84943;SDS011;75231;53.650;9.788;2024-01-15T01:45:28;6.68;;;1.33;;
84943;SDS011;75231;53.650;9.788;2024-01-15T01:47:53;10.82;;;1.85;;
84943;SDS011;75231;53.650;9.788;2024-01-15T01:50:18;12.57;;;1.98;;
84943;SDS011;75231;53.650;9.788;2024-01-15T01:52:44;12.73;;;2.05;;
84943;SDS011;75231;53.650;9.788;2024-01-15T01:55:09;7.82;;;1.33;;
84943;SDS011;75231;53.650;9.788;2024-01-15T01:57:36;6.80;;;1.23;;
84943;SDS011;75231;53.650;9.788;2024-01-15T02:00:03;6.72;;;1.00;;
84943;SDS011;75231;53.650;9.788;2024-01-15T02:02:29;10.48;;;2.85;;
84943;SDS011;75231;53.650;9.788;2024-01-15T02:04:56;10.88;;;1.30;;
84943;SDS011;75231;53.650;9.788;2024-01-15T02:07:21;8.13;;;1.42;;
84943;SDS011;75231;53.650;9.788;2024-01-15T02:09:47;7.60;;;1.75;;
84943;SDS011;75231;53.650;9.788;2024-01-15T02:12:14;9.93;;;1.70;;
84943;SDS011;75231;53.650;9.788;2024-01-15T02:14:40;5.40;;;1.23;;
84943;SDS011;75231;53.650;9.788;2024-01-15T02:17:05;11.13;;;1.20;;
84943;SDS011;75231;53.650;9.788;2024-01-15T02:19:31;11.85;;;1.33;;
84943;SDS011;75231;53.650;9.788;2024-01-15T02:21:56;6.22;;;2.00;;
84943;SDS011;75231;53.650;9.788;2024-01-15T02:24:21;11.13;;;1.60;;
84943;SDS011;75231;53.650;9.788;2024-01-15T02:26:47;10.63;;;1.25;;
84943;SDS011;75231;53.650;9.788;2024-01-15T02:29:13;7.80;;;1.38;;
84943;SDS011;75231;53.650;9.788;2024-01-15T02:34:05;5.60;;;1.17;;
84943;SDS011;75231;53.650;9.788;2024-01-15T02:36:30;7.65;;;1.50;;
84943;SDS011;75231;53.650;9.788;2024-01-15T02:38:55;6.68;;;1.55;;
84943;SDS011;75231;53.650;9.788;2024-01-15T02:41:20;8.18;;;1.15;;
84943;SDS011;75231;53.650;9.788;2024-01-15T02:43:46;6.78;;;1.58;;
84943;SDS011;75231;53.650;9.788;2024-01-15T02:46:11;7.10;;;1.30;;
84943;SDS011;75231;53.650;9.788;2024-01-15T02:48:36;13.48;;;1.70;;
84943;SDS011;75231;53.650;9.788;2024-01-15T02:51:02;9.05;;;2.00;;
84943;SDS011;75231;53.650;9.788;2024-01-15T02:53:28;7.05;;;1.90;;
84943;SDS011;75231;53.650;9.788;2024-01-15T02:55:53;8.05;;;1.40;;
84943;SDS011;75231;53.650;9.788;2024-01-15T02:58:18;6.05;;;1.52;;
84943;SDS011;75231;53.650;9.788;2024-01-15T03:00:44;12.88;;;2.15;;
84943;SDS011;75231;53.650;9.788;2024-01-15T03:03:09;8.75;;;1.75;;
84943;SDS011;75231;53.650;9.788;2024-01-15T03:05:34;14.57;;;1.90;;
84943;SDS011;75231;53.650;9.788;2024-01-15T03:08:00;7.18;;;1.60;;
84943;SDS011;75231;53.650;9.788;2024-01-15T03:10:25;8.88;;;1.63;;
84943;SDS011;75231;53.650;9.788;2024-01-15T03:13:03;5.38;;;1.63;;
84943;SDS011;75231;53.650;9.788;2024-01-15T03:15:28;7.15;;;1.45;;
84943;SDS011;75231;53.650;9.788;2024-01-15T03:17:53;10.20;;;1.27;;
84943;SDS011;75231;53.650;9.788;2024-01-15T03:20:19;8.15;;;1.58;;
84943;SDS011;75231;53.650;9.788;2024-01-15T03:22:44;10.93;;;1.60;;
84943;SDS011;75231;53.650;9.788;2024-01-15T03:25:09;9.20;;;2.15;;
84943;SDS011;75231;53.650;9.788;2024-01-15T03:27:34;14.30;;;1.83;;
84943;SDS011;75231;53.650;9.788;2024-01-15T03:30:00;10.80;;;2.03;;
84943;SDS011;75231;53.650;9.788;2024-01-15T03:32:25;14.52;;;2.17;;
84943;SDS011;75231;53.650;9.788;2024-01-15T03:34:50;13.27;;;2.60;;
84943;SDS011;75231;53.650;9.788;2024-01-15T03:37:17;10.05;;;1.83;;
84943;SDS011;75231;53.650;9.788;2024-01-15T03:39:42;13.68;;;2.40;;
84943;SDS011;75231;53.650;9.788;2024-01-15T03:42:08;19.40;;;2.83;;
84943;SDS011;75231;53.650;9.788;2024-01-15T03:44:33;11.82;;;2.38;;
84943;SDS011;75231;53.650;9.788;2024-01-15T03:46:58;11.45;;;1.98;;
84943;SDS011;75231;53.650;9.788;2024-01-15T03:49:23;13.05;;;2.95;;
84943;SDS011;75231;53.650;9.788;2024-01-15T03:51:49;11.07;;;2.30;;
84943;SDS011;75231;53.650;9.788;2024-01-15T03:54:14;7.47;;;1.58;;
84943;SDS011;75231;53.650;9.788;2024-01-15T03:56:39;13.43;;;1.95;;
84943;SDS011;75231;53.650;9.788;2024-01-15T03:59:05;13.45;;;1.90;;
84943;SDS011;75231;53.650;9.788;2024-01-15T04:01:30;7.93;;;1.52;;
84943;SDS011;75231;53.650;9.788;2024-01-15T04:03:55;6.38;;;1.83;;
84943;SDS011;75231;53.650;9.788;2024-01-15T04:06:20;6.13;;;1.17;;
84943;SDS011;75231;53.650;9.788;2024-01-15T04:08:46;10.77;;;1.92;;
84943;SDS011;75231;53.650;9.788;2024-01-15T04:11:11;10.65;;;1.70;;
84943;SDS011;75231;53.650;9.788;2024-01-15T04:13:36;7.65;;;1.33;;
84943;SDS011;75231;53.650;9.788;2024-01-15T04:16:02;9.57;;;2.28;;
84943;SDS011;75231;53.650;9.788;2024-01-15T04:20:53;11.47;;;1.60;;
84943;SDS011;75231;53.650;9.788;2024-01-15T04:23:18;9.27;;;1.60;;
84943;SDS011;75231;53.650;9.788;2024-01-15T04:25:44;4.23;;;1.30;;
84943;SDS011;75231;53.650;9.788;2024-01-15T04:28:10;12.48;;;1.75;;
84943;SDS011;75231;53.650;9.788;2024-01-15T04:30:36;17.08;;;2.90;;
84943;SDS011;75231;53.650;9.788;2024-01-15T04:33:01;11.98;;;2.05;;
84943;SDS011;75231;53.650;9.788;2024-01-15T04:35:26;10.02;;;2.03;;
84943;SDS011;75231;53.650;9.788;2024-01-15T04:37:52;13.27;;;2.33;;
84943;SDS011;75231;53.650;9.788;2024-01-15T04:40:17;14.10;;;2.63;;
84943;SDS011;75231;53.650;9.788;2024-01-15T04:42:42;18.10;;;2.75;;
84943;SDS011;75231;53.650;9.788;2024-01-15T04:45:08;19.63;;;2.97;;
84943;SDS011;75231;53.650;9.788;2024-01-15T04:47:33;17.50;;;2.58;;
84943;SDS011;75231;53.650;9.788;2024-01-15T04:49:59;13.52;;;3.05;;
84943;SDS011;75231;53.650;9.788;2024-01-15T04:52:24;16.67;;;3.28;;
84943;SDS011;75231;53.650;9.788;2024-01-15T04:54:49;13.88;;;3.33;;
84943;SDS011;75231;53.650;9.788;2024-01-15T04:57:14;11.70;;;2.30;;
84943;SDS011;75231;53.650;9.788;2024-01-15T04:59:40;14.55;;;2.55;;
84943;SDS011;75231;53.650;9.788;2024-01-15T05:02:05;14.15;;;2.22;;
84943;SDS011;75231;53.650;9.788;2024-01-15T05:04:30;7.40;;;2.42;;
84943;SDS011;75231;53.650;9.788;2024-01-15T05:06:56;18.85;;;3.28;;
84943;SDS011;75231;53.650;9.788;2024-01-15T05:09:21;16.90;;;3.67;;
84943;SDS011;75231;53.650;9.788;2024-01-15T05:11:46;15.25;;;2.53;;
84943;SDS011;75231;53.650;9.788;2024-01-15T05:14:11;15.65;;;2.75;;
84943;SDS011;75231;53.650;9.788;2024-01-15T05:16:40;13.17;;;2.23;;
84943;SDS011;75231;53.650;9.788;2024-01-15T05:19:11;18.80;;;2.55;;
84943;SDS011;75231;53.650;9.788;2024-01-15T05:21:36;15.90;;;3.35;;
84943;SDS011;75231;53.650;9.788;2024-01-15T05:24:01;14.65;;;2.17;;
84943;SDS011;75231;53.650;9.788;2024-01-15T05:26:27;10.02;;;2.60;;
84943;SDS011;75231;53.650;9.788;2024-01-15T05:28:52;12.10;;;2.97;;
84943;SDS011;75231;53.650;9.788;2024-01-15T05:31:17;10.88;;;2.45;;
84943;SDS011;75231;53.650;9.788;2024-01-15T05:33:43;11.27;;;1.75;;
84943;SDS011;75231;53.650;9.788;2024-01-15T05:36:08;24.27;;;3.65;;
84943;SDS011;75231;53.650;9.788;2024-01-15T05:38:33;21.25;;;3.33;;
84943;SDS011;75231;53.650;9.788;2024-01-15T05:40:58;12.88;;;2.45;;
84943;SDS011;75231;53.650;9.788;2024-01-15T05:43:24;14.23;;;3.35;;
84943;SDS011;75231;53.650;9.788;2024-01-15T05:45:49;11.50;;;2.17;;
84943;SDS011;75231;53.650;9.788;2024-01-15T05:48:14;9.38;;;2.90;;
84943;SDS011;75231;53.650;9.788;2024-01-15T05:50:39;16.15;;;3.08;;
84943;SDS011;75231;53.650;9.788;2024-01-15T05:53:05;11.88;;;2.00;;
84943;SDS011;75231;53.650;9.788;2024-01-15T05:55:30;12.68;;;2.42;;
84943;SDS011;75231;53.650;9.788;2024-01-15T05:57:55;9.68;;;2.45;;
84943;SDS011;75231;53.650;9.788;2024-01-15T06:00:21;17.50;;;2.55;;
84943;SDS011;75231;53.650;9.788;2024-01-15T06:02:48;16.33;;;2.47;;
84943;SDS011;75231;53.650;9.788;2024-01-15T06:05:13;14.83;;;2.77;;
84943;SDS011;75231;53.650;9.788;2024-01-15T06:07:39;12.32;;;2.35;;
84943;SDS011;75231;53.650;9.788;2024-01-15T06:10:04;12.00;;;2.95;;
84943;SDS011;75231;53.650;9.788;2024-01-15T06:12:30;11.75;;;1.98;;
84943;SDS011;75231;53.650;9.788;2024-01-15T06:14:56;10.77;;;2.40;;
84943;SDS011;75231;53.650;9.788;2024-01-15T06:17:21;5.20;;;1.48;;
84943;SDS011;75231;53.650;9.788;2024-01-15T06:19:46;10.55;;;1.50;;
84943;SDS011;75231;53.650;9.788;2024-01-15T06:22:12;7.40;;;1.00;;
84943;SDS011;75231;53.650;9.788;2024-01-15T06:24:37;9.03;;;1.57;;
84943;SDS011;75231;53.650;9.788;2024-01-15T06:27:02;5.60;;;0.90;;
84943;SDS011;75231;53.650;9.788;2024-01-15T06:29:27;4.70;;;1.27;;
84943;SDS011;75231;53.650;9.788;2024-01-15T06:31:53;8.52;;;1.60;;
84943;SDS011;75231;53.650;9.788;2024-01-15T06:34:18;7.68;;;1.30;;
84943;SDS011;75231;53.650;9.788;2024-01-15T06:36:44;3.30;;;1.45;;
84943;SDS011;75231;53.650;9.788;2024-01-15T06:39:10;8.77;;;1.20;;
84943;SDS011;75231;53.650;9.788;2024-01-15T06:41:35;8.07;;;1.85;;
84943;SDS011;75231;53.650;9.788;2024-01-15T06:44:08;4.95;;;1.20;;
84943;SDS011;75231;53.650;9.788;2024-01-15T06:46:34;7.50;;;1.38;;
84943;SDS011;75231;53.650;9.788;2024-01-15T06:51:25;5.70;;;1.70;;
84943;SDS011;75231;53.650;9.788;2024-01-15T06:53:50;10.00;;;2.20;;
84943;SDS011;75231;53.650;9.788;2024-01-15T06:56:15;14.73;;;1.58;;
84943;SDS011;75231;53.650;9.788;2024-01-15T06:58:40;6.55;;;1.52;;
84943;SDS011;75231;53.650;9.788;2024-01-15T07:01:06;6.00;;;1.60;;
84943;SDS011;75231;53.650;9.788;2024-01-15T07:03:32;7.65;;;1.30;;
84943;SDS011;75231;53.650;9.788;2024-01-15T07:05:58;7.47;;;1.47;;
84943;SDS011;75231;53.650;9.788;2024-01-15T07:08:23;10.85;;;2.28;;
84943;SDS011;75231;53.650;9.788;2024-01-15T07:10:48;6.95;;;1.80;;
84943;SDS011;75231;53.650;9.788;2024-01-15T07:13:13;11.23;;;1.60;;
84943;SDS011;75231;53.650;9.788;2024-01-15T07:15:39;5.60;;;1.30;;
84943;SDS011;75231;53.650;9.788;2024-01-15T07:18:04;8.05;;;2.03;;
84943;SDS011;75231;53.650;9.788;2024-01-15T07:20:30;6.30;;;1.30;;
84943;SDS011;75231;53.650;9.788;2024-01-15T07:22:55;8.00;;;0.80;;
84943;SDS011;75231;53.650;9.788;2024-01-15T07:25:20;5.68;;;1.10;;
84943;SDS011;75231;53.650;9.788;2024-01-15T07:27:45;8.07;;;1.13;;
84943;SDS011;75231;53.650;9.788;2024-01-15T07:30:12;5.10;;;1.27;;
84943;SDS011;75231;53.650;9.788;2024-01-15T07:35:03;5.27;;;0.90;;
84943;SDS011;75231;53.650;9.788;2024-01-15T07:37:29;2.95;;;0.93;;
84943;SDS011;75231;53.650;9.788;2024-01-15T07:39:54;7.20;;;0.82;;
84943;SDS011;75231;53.650;9.788;2024-01-15T07:42:19;6.35;;;1.00;;
84943;SDS011;75231;53.650;9.788;2024-01-15T07:44:45;2.13;;;1.17;;
84943;SDS011;75231;53.650;9.788;2024-01-15T07:47:10;7.50;;;1.30;;
84943;SDS011;75231;53.650;9.788;2024-01-15T07:49:35;4.60;;;1.08;;
84943;SDS011;75231;53.650;9.788;2024-01-15T07:52:01;7.57;;;2.10;;
84943;SDS011;75231;53.650;9.788;2024-01-15T07:54:26;13.20;;;1.23;;
84943;SDS011;75231;53.650;9.788;2024-01-15T07:56:59;5.40;;;0.63;;
84943;SDS011;75231;53.650;9.788;2024-01-15T07:59:25;5.88;;;1.17;;
84943;SDS011;75231;53.650;9.788;2024-01-15T08:01:52;7.90;;;1.30;;
84943;SDS011;75231;53.650;9.788;2024-01-15T08:04:17;3.35;;;1.40;;
84943;SDS011;75231;53.650;9.788;2024-01-15T08:06:43;7.43;;;1.65;;
84943;SDS011;75231;53.650;9.788;2024-01-15T08:09:08;3.03;;;0.73;;
84943;SDS011;75231;53.650;9.788;2024-01-15T08:11:34;8.40;;;2.58;;
84943;SDS011;75231;53.650;9.788;2024-01-15T08:14:00;5.78;;;1.38;;
84943;SDS011;75231;53.650;9.788;2024-01-15T08:16:25;7.22;;;1.55;;
84943;SDS011;75231;53.650;9.788;2024-01-15T08:18:52;4.82;;;1.58;;
84943;SDS011;75231;53.650;9.788;2024-01-15T08:21:18;6.70;;;1.55;;
84943;SDS011;75231;53.650;9.788;2024-01-15T08:23:44;6.82;;;1.20;;
84943;SDS011;75231;53.650;9.788;2024-01-15T08:26:09;6.40;;;1.63;;
84943;SDS011;75231;53.650;9.788;2024-01-15T08:28:35;5.18;;;1.40;;
84943;SDS011;75231;53.650;9.788;2024-01-15T08:31:00;6.13;;;1.30;;
84943;SDS011;75231;53.650;9.788;2024-01-15T08:33:26;7.80;;;0.97;;
84943;SDS011;75231;53.650;9.788;2024-01-15T08:35:51;5.65;;;0.95;;
84943;SDS011;75231;53.650;9.788;2024-01-15T08:38:16;9.02;;;1.25;;
84943;SDS011;75231;53.650;9.788;2024-01-15T08:40:42;1.58;;;0.63;;
84943;SDS011;75231;53.650;9.788;2024-01-15T08:43:07;5.30;;;0.95;;
84943;SDS011;75231;53.650;9.788;2024-01-15T08:45:32;4.68;;;1.08;;
84943;SDS011;75231;53.650;9.788;2024-01-15T08:47:58;6.20;;;0.95;;
84943;SDS011;75231;53.650;9.788;2024-01-15T08:50:24;7.57;;;1.30;;
84943;SDS011;75231;53.650;9.788;2024-01-15T08:52:49;5.72;;;0.82;;
84943;SDS011;75231;53.650;9.788;2024-01-15T08:55:14;8.80;;;1.08;;
84943;SDS011;75231;53.650;9.788;2024-01-15T08:57:40;10.90;;;1.05;;
84943;SDS011;75231;53.650;9.788;2024-01-15T09:00:05;4.40;;;1.10;;
84943;SDS011;75231;53.650;9.788;2024-01-15T09:02:33;4.65;;;1.10;;
84943;SDS011;75231;53.650;9.788;2024-01-15T09:04:59;10.38;;;1.30;;
84943;SDS011;75231;53.650;9.788;2024-01-15T09:07:24;4.13;;;1.00;;
84943;SDS011;75231;53.650;9.788;2024-01-15T09:09:51;6.88;;;0.80;;
84943;SDS011;75231;53.650;9.788;2024-01-15T09:12:16;8.95;;;1.13;;
84943;SDS011;75231;53.650;9.788;2024-01-15T09:14:43;3.60;;;1.42;;
84943;SDS011;75231;53.650;9.788;2024-01-15T09:17:08;4.20;;;1.33;;
84943;SDS011;75231;53.650;9.788;2024-01-15T09:19:34;6.40;;;1.98;;
84943;SDS011;75231;53.650;9.788;2024-01-15T09:21:59;8.57;;;1.27;;
84943;SDS011;75231;53.650;9.788;2024-01-15T09:24:24;6.30;;;0.80;;
84943;SDS011;75231;53.650;9.788;2024-01-15T09:26:49;7.23;;;1.70;;
84943;SDS011;75231;53.650;9.788;2024-01-15T09:29:15;7.03;;;1.33;;
84943;SDS011;75231;53.650;9.788;2024-01-15T09:31:40;6.60;;;1.10;;
84943;SDS011;75231;53.650;9.788;2024-01-15T09:34:06;6.50;;;2.15;;
84943;SDS011;75231;53.650;9.788;2024-01-15T09:36:31;8.98;;;2.72;;
84943;SDS011;75231;53.650;9.788;2024-01-15T09:38:57;4.05;;;1.17;;
84943;SDS011;75231;53.650;9.788;2024-01-15T09:41:22;4.38;;;1.52;;
84943;SDS011;75231;53.650;9.788;2024-01-15T09:43:48;6.63;;;1.92;;
84943;SDS011;75231;53.650;9.788;2024-01-15T09:46:14;11.30;;;1.75;;
84943;SDS011;75231;53.650;9.788;2024-01-15T09:48:40;7.45;;;1.40;;
84943;SDS011;75231;53.650;9.788;2024-01-15T09:51:05;9.68;;;1.63;;
84943;SDS011;75231;53.650;9.788;2024-01-15T09:53:32;8.45;;;3.03;;
84943;SDS011;75231;53.650;9.788;2024-01-15T09:55:59;8.20;;;1.35;;
84943;SDS011;75231;53.650;9.788;2024-01-15T09:58:24;6.50;;;1.08;;
84943;SDS011;75231;53.650;9.788;2024-01-15T10:00:50;3.35;;;1.08;;
84943;SDS011;75231;53.650;9.788;2024-01-15T10:03:16;5.07;;;1.63;;
84943;SDS011;75231;53.650;9.788;2024-01-15T10:05:42;7.32;;;1.40;;
84943;SDS011;75231;53.650;9.788;2024-01-15T10:08:08;7.72;;;1.65;;
84943;SDS011;75231;53.650;9.788;2024-01-15T10:10:35;9.75;;;1.55;;
84943;SDS011;75231;53.650;9.788;2024-01-15T10:13:02;5.20;;;1.65;;
84943;SDS011;75231;53.650;9.788;2024-01-15T10:15:29;4.85;;;1.27;;
84943;SDS011;75231;53.650;9.788;2024-01-15T10:17:54;8.85;;;1.40;;
84943;SDS011;75231;53.650;9.788;2024-01-15T10:20:20;4.43;;;1.40;;
84943;SDS011;75231;53.650;9.788;2024-01-15T10:22:47;5.25;;;1.50;;
84943;SDS011;75231;53.650;9.788;2024-01-15T10:25:13;6.30;;;1.75;;
84943;SDS011;75231;53.650;9.788;2024-01-15T10:27:39;4.60;;;1.40;;
84943;SDS011;75231;53.650;9.788;2024-01-15T10:30:06;7.28;;;1.10;;
84943;SDS011;75231;53.650;9.788;2024-01-15T10:34:57;9.38;;;1.35;;
84943;SDS011;75231;53.650;9.788;2024-01-15T10:37:24;5.00;;;1.85;;
84943;SDS011;75231;53.650;9.788;2024-01-15T10:39:49;8.32;;;1.30;;
84943;SDS011;75231;53.650;9.788;2024-01-15T10:42:15;5.00;;;1.17;;
84943;SDS011;75231;53.650;9.788;2024-01-15T10:44:42;4.18;;;1.23;;
84943;SDS011;75231;53.650;9.788;2024-01-15T10:47:08;6.75;;;1.30;;
84943;SDS011;75231;53.650;9.788;2024-01-15T10:49:34;9.15;;;1.55;;
84943;SDS011;75231;53.650;9.788;2024-01-15T10:52:00;8.20;;;1.15;;
84943;SDS011;75231;53.650;9.788;2024-01-15T10:54:26;3.53;;;0.85;;
84943;SDS011;75231;53.650;9.788;2024-01-15T10:56:52;3.78;;;1.13;;
84943;SDS011;75231;53.650;9.788;2024-01-15T11:01:45;10.20;;;1.10;;
84943;SDS011;75231;53.650;9.788;2024-01-15T11:04:11;3.05;;;0.95;;
84943;SDS011;75231;53.650;9.788;2024-01-15T11:06:41;6.03;;;0.95;;
84943;SDS011;75231;53.650;9.788;2024-01-15T11:09:08;4.30;;;0.90;;
84943;SDS011;75231;53.650;9.788;2024-01-15T11:11:35;3.65;;;0.82;;
84943;SDS011;75231;53.650;9.788;2024-01-15T11:14:01;4.38;;;1.05;;
84943;SDS011;75231;53.650;9.788;2024-01-15T11:16:28;4.13;;;1.08;;
84943;SDS011;75231;53.650;9.788;2024-01-15T11:19:21;3.47;;;0.65;;
84943;SDS011;75231;53.650;9.788;2024-01-15T11:21:47;5.57;;;1.05;;
84943;SDS011;75231;53.650;9.788;2024-01-15T11:24:12;3.45;;;0.80;;
84943;SDS011;75231;53.650;9.788;2024-01-15T11:26:58;6.38;;;0.90;;
84943;SDS011;75231;53.650;9.788;2024-01-15T11:40:19;3.90;;;1.33;;
84943;SDS011;75231;53.650;9.788;2024-01-15T11:42:46;2.70;;;1.27;;
84943;SDS011;75231;53.650;9.788;2024-01-15T11:45:13;2.97;;;1.30;;
84943;SDS011;75231;53.650;9.788;2024-01-15T11:50:42;7.20;;;1.35;;
84943;SDS011;75231;53.650;9.788;2024-01-15T11:53:21;3.15;;;0.90;;
84943;SDS011;75231;53.650;9.788;2024-01-15T11:56:11;1.45;;;1.05;;
84943;SDS011;75231;53.650;9.788;2024-01-15T11:58:40;2.30;;;1.00;;
84943;SDS011;75231;53.650;9.788;2024-01-15T12:01:06;2.08;;;1.30;;
84943;SDS011;75231;53.650;9.788;2024-01-15T12:03:32;3.17;;;1.05;;
84943;SDS011;75231;53.650;9.788;2024-01-15T12:05:58;2.33;;;1.20;;
84943;SDS011;75231;53.650;9.788;2024-01-15T12:08:24;2.10;;;1.15;;
84943;SDS011;75231;53.650;9.788;2024-01-15T12:10:51;3.45;;;1.45;;
84943;SDS011;75231;53.650;9.788;2024-01-15T12:13:17;3.80;;;1.10;;
84943;SDS011;75231;53.650;9.788;2024-01-15T12:15:46;6.30;;;1.60;;
84943;SDS011;75231;53.650;9.788;2024-01-15T12:18:13;2.97;;;1.73;;
84943;SDS011;75231;53.650;9.788;2024-01-15T12:20:40;3.33;;;1.50;;
84943;SDS011;75231;53.650;9.788;2024-01-15T12:23:07;2.00;;;1.40;;
84943;SDS011;75231;53.650;9.788;2024-01-15T12:25:33;2.50;;;1.77;;
84943;SDS011;75231;53.650;9.788;2024-01-15T12:30:28;1.70;;;1.48;;
84943;SDS011;75231;53.650;9.788;2024-01-15T12:32:56;5.18;;;4.28;;
84943;SDS011;75231;53.650;9.788;2024-01-15T12:35:23;5.50;;;3.33;;
84943;SDS011;75231;53.650;9.788;2024-01-15T12:37:49;3.70;;;1.80;;
84943;SDS011;75231;53.650;9.788;2024-01-15T12:40:24;3.53;;;3.22;;
84943;SDS011;75231;53.650;9.788;2024-01-15T12:42:49;4.07;;;2.15;;
84943;SDS011;75231;53.650;9.788;2024-01-15T12:45:15;2.00;;;1.15;;
84943;SDS011;75231;53.650;9.788;2024-01-15T12:47:41;2.05;;;1.25;;
84943;SDS011;75231;53.650;9.788;2024-01-15T12:50:07;2.80;;;1.80;;
84943;SDS011;75231;53.650;9.788;2024-01-15T12:52:34;1.88;;;1.40;;
84943;SDS011;75231;53.650;9.788;2024-01-15T12:54:59;2.13;;;1.60;;
84943;SDS011;75231;53.650;9.788;2024-01-15T12:57:24;4.68;;;1.33;;
84943;SDS011;75231;53.650;9.788;2024-01-15T12:59:50;2.10;;;0.90;;
84943;SDS011;75231;53.650;9.788;2024-01-15T13:02:15;1.95;;;1.30;;
84943;SDS011;75231;53.650;9.788;2024-01-15T13:04:41;2.60;;;1.33;;
84943;SDS011;75231;53.650;9.788;2024-01-15T13:07:07;3.05;;;1.42;;
84943;SDS011;75231;53.650;9.788;2024-01-15T13:09:35;2.67;;;1.50;;
84943;SDS011;75231;53.650;9.788;2024-01-15T13:12:04;2.50;;;1.40;;
84943;SDS011;75231;53.650;9.788;2024-01-15T13:14:30;2.58;;;1.80;;
84943;SDS011;75231;53.650;9.788;2024-01-15T13:16:56;2.80;;;1.40;;
84943;SDS011;75231;53.650;9.788;2024-01-15T13:19:22;2.03;;;1.58;;
84943;SDS011;75231;53.650;9.788;2024-01-15T13:21:47;8.38;;;2.33;;
84943;SDS011;75231;53.650;9.788;2024-01-15T13:24:13;5.00;;;1.75;;
84943;SDS011;75231;53.650;9.788;2024-01-15T13:26:39;2.08;;;1.55;;
84943;SDS011;75231;53.650;9.788;2024-01-15T13:29:04;3.25;;;1.10;;
84943;SDS011;75231;53.650;9.788;2024-01-15T13:31:30;3.72;;;1.10;;
84943;SDS011;75231;53.650;9.788;2024-01-15T13:33:56;2.10;;;1.10;;
84943;SDS011;75231;53.650;9.788;2024-01-15T13:36:22;2.38;;;1.20;;
84943;SDS011;75231;53.650;9.788;2024-01-15T13:38:48;1.50;;;1.20;;
84943;SDS011;75231;53.650;9.788;2024-01-15T13:41:18;2.67;;;1.40;;
84943;SDS011;75231;53.650;9.788;2024-01-15T13:43:53;2.17;;;1.48;;
84943;SDS011;75231;53.650;9.788;2024-01-15T13:46:19;3.90;;;1.80;;
84943;SDS011;75231;53.650;9.788;2024-01-15T13:48:49;3.30;;;1.55;;
84943;SDS011;75231;53.650;9.788;2024-01-15T13:51:14;4.13;;;2.00;;
84943;SDS011;75231;53.650;9.788;2024-01-15T13:53:39;4.03;;;2.05;;
84943;SDS011;75231;53.650;9.788;2024-01-15T13:56:05;7.93;;;2.42;;
84943;SDS011;75231;53.650;9.788;2024-01-15T13:58:31;4.55;;;2.30;;
84943;SDS011;75231;53.650;9.788;2024-01-15T14:03:23;3.85;;;1.70;;
84943;SDS011;75231;53.650;9.788;2024-01-15T14:05:48;3.63;;;1.98;;
84943;SDS011;75231;53.650;9.788;2024-01-15T14:08:14;2.58;;;1.60;;
84943;SDS011;75231;53.650;9.788;2024-01-15T14:10:39;2.75;;;1.88;;
84943;SDS011;75231;53.650;9.788;2024-01-15T14:13:11;2.50;;;1.60;;
84943;SDS011;75231;53.650;9.788;2024-01-15T14:15:36;2.22;;;1.40;;
84943;SDS011;75231;53.650;9.788;2024-01-15T14:18:01;2.80;;;1.05;;
84943;SDS011;75231;53.650;9.788;2024-01-15T14:20:27;2.63;;;1.90;;
84943;SDS011;75231;53.650;9.788;2024-01-15T14:22:53;3.87;;;1.80;;
84943;SDS011;75231;53.650;9.788;2024-01-15T14:25:19;2.92;;;1.77;;
84943;SDS011;75231;53.650;9.788;2024-01-15T14:27:44;3.80;;;2.03;;
84943;SDS011;75231;53.650;9.788;2024-01-15T14:30:10;4.72;;;2.00;;
84943;SDS011;75231;53.650;9.788;2024-01-15T14:32:37;4.60;;;2.72;;
84943;SDS011;75231;53.650;9.788;2024-01-15T14:35:03;9.02;;;3.42;;
84943;SDS011;75231;53.650;9.788;2024-01-15T14:37:30;6.20;;;3.85;;
84943;SDS011;75231;53.650;9.788;2024-01-15T14:39:55;7.35;;;3.30;;
84943;SDS011;75231;53.650;9.788;2024-01-15T14:42:21;6.57;;;3.47;;
84943;SDS011;75231;53.650;9.788;2024-01-15T14:44:47;4.97;;;3.05;;
84943;SDS011;75231;53.650;9.788;2024-01-15T14:47:12;4.00;;;2.63;;
84943;SDS011;75231;53.650;9.788;2024-01-15T14:49:37;5.63;;;3.15;;
84943;SDS011;75231;53.650;9.788;2024-01-15T14:52:02;7.20;;;2.83;;
84943;SDS011;75231;53.650;9.788;2024-01-15T14:54:28;7.68;;;4.32;;
84943;SDS011;75231;53.650;9.788;2024-01-15T14:56:53;9.00;;;4.23;;
84943;SDS011;75231;53.650;9.788;2024-01-15T14:59:19;4.65;;;2.85;;
84943;SDS011;75231;53.650;9.788;2024-01-15T15:01:44;6.10;;;3.35;;
84943;SDS011;75231;53.650;9.788;2024-01-15T15:04:10;4.68;;;3.25;;
84943;SDS011;75231;53.650;9.788;2024-01-15T15:06:36;7.72;;;3.58;;
84943;SDS011;75231;53.650;9.788;2024-01-15T15:09:01;4.97;;;2.85;;
84943;SDS011;75231;53.650;9.788;2024-01-15T15:11:33;7.50;;;3.08;;
84943;SDS011;75231;53.650;9.788;2024-01-15T15:13:59;8.63;;;5.18;;